Redwood National Park, CA

1:06 PM PDT on August 26, 2016 (GMT -0700)
APRSWXNET | | Change Station

Elev 5 ft 40.86 °N, 124.09 °W | Updated 18 minutes ago

Overcast
Overcast
62 °F
Feels Like 62 °F
N
3
Wind Variable Wind from NW
Gusts 12.0 mph

Today
High -- | Low -- °F
--% Chance of Precip.
Yesterday
High -- | Low -- °F
Precip. -- in
Pressure 29.97 in
Visibility 10.0 miles
Clouds Overcast 300 ft
Dew Point 57 °F
Humidity 85%
Rainfall in
Snow Depth Not available.
6:37 AM 7:57 PM
Waning Crescent, 31% visible
METAR KACV 261953Z AUTO 31008KT 10SM OVC003 14/12 A2995 RMK AO2 CIG 002V006 SLP147 T01440122
Pressure 29.97 in
Visibility 10.0 miles
Clouds Overcast 300 ft
Dew Point 57 °F
Humidity 85%
Rainfall in
Snow Depth Not available.
6:37 AM 7:57 PM
Waning Crescent, 31% visible
METAR KACV 261953Z AUTO 31008KT 10SM OVC003 14/12 A2995 RMK AO2 CIG 002V006 SLP147 T01440122

10-Day Weather Forecast

Almanac

Astronomy

Aug. 26, 2016 Rise Set
Actual Time
Civil Twilight
Nautical Twilight
Astronomical Twilight
Moon
Length of Visible Light
Length of Day
Tomorrow will be .
, % of the Moon is Illuminated

Today's Extremes

State Highs State Lows

Community

WunderPhotos

Upload Photos

1,935,191 photos uploaded!

WunderBlog® & News

Nearby

Air Quality

  Air Quality AQ Index Pollutant
Not available.

Snow Depth

Station Depth Elevation

Earthquake Activity

City Distance Mag. Time & Date
Minimum magnitude displayed is 2.5.

Coastal Water Temperatures

Place Temperature

Stations

Nearby Weather Stations

Station Location Temp. Windchill Dew Point Humidity Wind Precip. Elev Updated Type
                   

Watches & Warnings

There are currently no watches in effect.